Time;durP1;ratioP1;P1;durP2;ratioP2;P2;SDS_P1;SDS_P2;PMS_P1;PMS_P2;Temp;Humidity;BMP_temperature;BMP_pressure;BME280_temperature;BME280_humidity;BME280_pressure;Samples;Min_cycle;Max_cycle;Signal;HPM_P1;HPM_P2
2023/04/11 00:02:00;;;;;;;32.55;5.03;;;;;;;8.19;88.88;101042.03;6101430;19;20482;-72
2023/04/11 00:04:06;;;;;;;18.48;4.32;;;;;;;8.12;89.15;101048.31;6099129;19;20011;-73
2023/04/11 00:06:14;;;;;;;24.23;4.65;;;;;;;8.12;88.83;101048.31;6094572;19;20002;-71
2023/04/11 00:08:25;;;;;;;30.02;4.75;;;;;;;8.19;88.78;101049.00;6099287;19;20013;-73
2023/04/11 00:10:30;;;;;;;24.77;4.53;;;;;;;8.28;88.33;101044.38;6100887;19;20471;-73
2023/04/11 00:12:35;;;;;;;20.80;4.97;;;;;;;8.24;88.39;101047.13;6103002;19;20491;-73
2023/04/11 00:14:44;;;;;;;19.13;6.68;;;;;;;8.23;88.52;101048.88;6100245;19;20007;-74
2023/04/11 00:16:52;;;;;;;28.50;4.13;;;;;;;8.23;88.58;101048.03;6100641;19;20547;-73
2023/04/11 00:18:57;;;;;;;21.70;5.00;;;;;;;8.23;88.77;101051.50;6101570;19;20438;-73
2023/04/11 00:21:02;;;;;;;24.73;4.50;;;;;;;8.23;88.70;101048.03;6103484;19;20002;-74
2023/04/11 00:23:10;;;;;;;21.50;4.07;;;;;;;8.25;88.39;101046.25;6100524;19;20014;-73
2023/04/11 00:25:15;;;;;;;19.98;4.10;;;;;;;8.19;88.68;101047.28;6104151;19;20059;-73
2023/04/11 00:27:24;;;;;;;28.67;4.50;;;;;;;8.22;88.41;101036.72;6105103;19;20006;-72
2023/04/11 00:29:29;;;;;;;39.60;5.13;;;;;;;8.28;88.23;101043.53;6102067;19;19998;-74
2023/04/11 00:31:34;;;;;;;19.13;4.25;;;;;;;8.28;88.11;101054.84;6103358;19;20138;-73
2023/04/11 00:33:39;;;;;;;21.42;4.20;;;;;;;8.27;88.16;101052.31;6103092;19;20081;-74
2023/04/11 00:35:44;;;;;;;18.20;4.43;;;;;;;8.26;88.53;101051.41;6102781;19;20109;-74
2023/04/11 00:37:54;;;;;;;21.00;4.13;;;;;;;8.27;88.41;101047.91;6101985;19;20021;-73
2023/04/11 00:40:04;;;;;;;20.52;5.00;;;;;;;8.26;88.56;101046.19;6103385;19;20010;-73
2023/04/11 00:42:10;;;;;;;26.50;5.25;;;;;;;8.32;87.94;101056.50;6103223;19;20384;-73
2023/04/11 00:44:15;;;;;;;28.10;4.50;;;;;;;8.31;88.04;101056.53;6100308;19;20038;-72
2023/04/11 00:46:21;;;;;;;26.95;5.47;;;;;;;8.34;87.76;101054.69;6099730;19;20489;-72
2023/04/11 00:48:27;;;;;;;23.92;4.88;;;;;;;8.35;88.35;101060.78;6098902;19;20035;-74
2023/04/11 00:50:32;;;;;;;19.33;4.13;;;;;;;8.40;87.75;101058.94;6099968;19;20030;-74
2023/04/11 00:52:40;;;;;;;25.17;4.90;;;;;;;8.40;88.32;101058.94;6092798;19;20050;-72
2023/04/11 00:54:45;;;;;;;30.90;5.18;;;;;;;8.41;88.00;101059.78;6098892;19;20215;-74
2023/04/11 00:56:55;;;;;;;23.65;4.70;;;;;;;8.46;87.91;101066.63;6097883;19;20110;-72
2023/04/11 00:59:07;;;;;;;23.52;4.35;;;;;;;8.45;87.61;101064.03;6097998;19;20009;-73
2023/04/11 01:01:12;;;;;;;25.17;5.07;;;;;;;8.43;87.69;101063.25;6099567;19;20024;-74
2023/04/11 01:03:21;;;;;;;23.15;3.97;;;;;;;8.46;87.38;101068.38;6098875;19;20034;-74
2023/04/11 01:05:30;;;;;;;25.15;4.40;;;;;;;8.48;86.74;101066.59;6098755;19;20620;-74
2023/04/11 01:07:37;;;;;;;20.50;3.75;;;;;;;8.50;86.38;101059.53;6096353;19;20006;-73
2023/04/11 01:09:43;;;;;;;17.40;3.78;;;;;;;8.53;85.64;101059.44;6102363;19;20009;-73
2023/04/11 01:11:56;;;;;;;17.10;4.03;;;;;;;8.55;85.56;101063.72;6099007;19;20013;-73
2023/04/11 01:14:02;;;;;;;24.60;3.97;;;;;;;8.49;84.42;101061.28;6101268;19;20070;-74
2023/04/11 01:16:08;;;;;;;10.80;2.88;;;;;;;8.61;80.84;101067.97;6101669;19;20003;-73
2023/04/11 01:18:14;;;;;;;14.63;3.25;;;;;;;8.60;81.34;101057.50;6097928;19;20465;-73
2023/04/11 01:20:20;;;;;;;15.57;3.22;;;;;;;8.59;81.56;101068.91;6100548;19;20022;-73
2023/04/11 01:22:27;;;;;;;14.27;2.75;;;;;;;8.58;80.68;101070.63;6102321;19;20018;-73
2023/04/11 01:24:35;;;;;;;16.05;3.17;;;;;;;8.58;80.93;101065.41;6101147;19;20038;-73
2023/04/11 01:26:40;;;;;;;12.20;3.65;;;;;;;8.56;80.34;101065.47;6102483;19;20010;-73
2023/04/11 01:28:45;;;;;;;17.92;3.65;;;;;;;8.57;79.58;101061.06;6098805;19;20846;-74
2023/04/11 01:30:51;;;;;;;11.18;2.83;;;;;;;8.51;80.38;101069.97;6099537;19;20007;-74
2023/04/11 01:32:56;;;;;;;11.73;3.15;;;;;;;8.45;80.32;101067.53;6098861;19;20706;-69
2023/04/11 01:35:02;;;;;;;7.30;2.20;;;;;;;8.45;79.17;101069.28;6097774;19;20020;-69
2023/04/11 01:37:08;;;;;;;11.20;2.85;;;;;;;8.39;80.48;101069.41;6098785;19;20021;-69
2023/04/11 01:39:13;;;;;;;13.93;2.83;;;;;;;8.36;79.52;101071.22;6100032;19;20574;-69
2023/04/11 01:41:21;;;;;;;13.48;2.53;;;;;;;8.34;79.41;101069.53;6101120;19;20017;-74
2023/04/11 01:43:26;;;;;;;16.23;2.97;;;;;;;8.34;79.42;101077.38;6103347;19;20006;-74
2023/04/11 01:45:32;;;;;;;9.43;2.40;;;;;;;8.34;79.74;101075.63;6105554;19;20038;-75
2023/04/11 01:47:38;;;;;;;14.88;2.88;;;;;;;8.41;79.85;101083.38;6104502;19;20010;-74
2023/04/11 01:49:44;;;;;;;11.90;3.13;;;;;;;8.39;79.75;101087.75;6104047;19;20089;-74
2023/04/11 01:51:50;;;;;;;9.90;3.05;;;;;;;8.42;78.70;101092.94;6103837;19;20002;-69
2023/04/11 01:53:55;;;;;;;10.30;2.58;;;;;;;8.38;79.58;101081.66;6103244;19;20749;-70
2023/04/11 01:56:00;;;;;;;12.00;2.78;;;;;;;8.35;79.03;101092.22;6106979;19;20026;-67
2023/04/11 01:58:08;;;;;;;14.27;2.40;;;;;;;8.34;79.51;101104.44;6105450;19;20442;-69
2023/04/11 02:00:15;;;;;;;12.60;2.80;;;;;;;8.37;79.60;101103.50;6100308;19;20007;-68
2023/04/11 02:02:22;;;;;;;7.90;2.55;;;;;;;8.34;79.06;101117.53;6103460;19;20526;-69
2023/04/11 02:04:27;;;;;;;8.98;2.63;;;;;;;8.28;79.78;101109.84;6102080;19;20549;-69
2023/04/11 02:06:33;;;;;;;11.45;3.30;;;;;;;8.26;80.30;101114.25;6101931;19;20508;-68
2023/04/11 02:08:38;;;;;;;14.40;2.80;;;;;;;8.27;79.75;101115.13;6103548;19;20010;-68
2023/04/11 02:10:43;;;;;;;12.00;2.65;;;;;;;8.28;80.41;101116.84;6104787;19;20071;-68
2023/04/11 02:12:48;;;;;;;12.48;2.58;;;;;;;8.27;80.01;101118.59;6103669;19;20482;-69
2023/04/11 02:14:59;;;;;;;15.40;2.95;;;;;;;8.28;79.61;101122.06;6103689;19;20018;-68
2023/04/11 02:17:08;;;;;;;13.57;2.78;;;;;;;8.29;79.60;101108.06;6102280;19;20002;-68
2023/04/11 02:19:13;;;;;;;8.27;2.90;;;;;;;8.27;80.03;101116.00;6103772;19;20010;-69
2023/04/11 02:21:21;;;;;;;15.10;3.10;;;;;;;8.25;79.84;101124.78;6104089;19;20018;-68
2023/04/11 02:23:26;;;;;;;16.77;3.22;;;;;;;8.19;80.71;101120.56;6104537;19;20007;-68
2023/04/11 02:25:31;;;;;;;17.05;5.32;;;;;;;8.16;80.67;101118.00;6107154;19;20027;-68
2023/04/11 02:27:36;;;;;;;18.20;4.80;;;;;;;8.17;80.60;101119.75;6107415;19;20074;-68
2023/04/11 02:29:41;;;;;;;13.82;3.40;;;;;;;8.16;81.05;101127.63;6104184;19;20006;-69
2023/04/11 02:31:51;;;;;;;14.13;3.17;;;;;;;8.07;81.50;101131.34;6106800;19;20038;-68
2023/04/11 02:33:56;;;;;;;13.50;2.70;;;;;;;8.05;81.46;101133.13;6105693;19;20435;-68
2023/04/11 02:36:01;;;;;;;18.13;3.53;;;;;;;8.01;81.20;101131.50;6107390;19;20442;-68
2023/04/11 02:38:06;;;;;;;9.18;2.40;;;;;;;7.98;80.81;101136.78;6107128;19;20333;-68
2023/04/11 02:40:13;;;;;;;14.27;2.80;;;;;;;7.89;81.52;101130.91;6106530;19;20037;-68
2023/04/11 02:42:18;;;;;;;14.60;3.00;;;;;;;7.83;81.69;101135.44;6106372;19;20014;-68
2023/04/11 02:44:25;;;;;;;19.13;2.65;;;;;;;7.73;81.62;101126.94;6104661;19;20006;-69
2023/04/11 02:46:30;;;;;;;16.75;3.72;;;;;;;7.74;81.71;101136.53;6102004;19;20010;-68
2023/04/11 02:48:37;;;;;;;15.15;2.65;;;;;;;7.75;81.34;101142.63;6106537;19;20014;-68
2023/04/11 02:50:42;;;;;;;10.93;2.85;;;;;;;7.77;81.41;101144.28;6103492;19;20116;-72
2023/04/11 02:52:48;;;;;;;10.65;2.75;;;;;;;7.74;81.18;101140.88;6097039;19;20011;-73
2023/04/11 02:54:54;;;;;;;12.80;2.90;;;;;;;7.69;81.69;101138.38;6102066;19;20011;-73
2023/04/11 02:56:59;;;;;;;8.23;2.60;;;;;;;7.58;82.22;101141.25;6103947;19;20081;-74
2023/04/11 02:59:04;;;;;;;13.35;3.22;;;;;;;7.58;82.16;101151.72;6105768;19;20007;-73
2023/04/11 03:01:10;;;;;;;16.67;3.10;;;;;;;7.50;82.96;101156.25;6105421;19;20067;-72
2023/04/11 03:03:15;;;;;;;19.02;3.78;;;;;;;7.57;82.40;101155.22;6103803;19;20011;-72
2023/04/11 03:05:26;;;;;;;8.95;2.60;;;;;;;7.59;82.25;101157.81;6105223;19;20657;-73
2023/04/11 03:07:32;;;;;;;10.05;2.80;;;;;;;7.58;82.50;101151.72;6103640;19;20011;-73
2023/04/11 03:09:37;;;;;;;15.15;3.08;;;;;;;7.52;82.55;101157.06;6104593;19;20518;-74
2023/04/11 03:11:42;;;;;;;11.77;3.20;;;;;;;7.50;82.48;101151.00;6105734;19;20025;-73
2023/04/11 03:13:49;;;;;;;11.60;3.13;;;;;;;7.53;82.36;101156.19;6104964;19;20011;-72
2023/04/11 03:15:54;;;;;;;12.25;3.20;;;;;;;7.57;82.14;101151.75;6103933;19;20019;-68
2023/04/11 03:18:00;;;;;;;11.77;2.47;;;;;;;7.58;82.12;101163.91;6103184;19;20006;-68
2023/04/11 03:20:08;;;;;;;11.40;2.63;;;;;;;7.61;81.25;101156.00;6101166;19;20579;-68
2023/04/11 03:22:16;;;;;;;10.82;2.28;;;;;;;7.62;81.63;101161.19;6097802;19;20106;-68
2023/04/11 03:24:26;;;;;;;14.80;3.05;;;;;;;7.58;80.50;101170.03;6101933;19;20003;-68
2023/04/11 03:26:31;;;;;;;10.55;2.40;;;;;;;7.57;80.29;101164.81;6105344;19;20027;-70
2023/04/11 03:28:36;;;;;;;15.45;2.97;;;;;;;7.61;79.00;101167.34;6102059;19;20017;-69
2023/04/11 03:30:42;;;;;;;9.55;2.60;;;;;;;7.55;79.75;101177.91;6106063;19;20014;-70
2023/04/11 03:32:47;;;;;;;16.83;2.97;;;;;;;7.50;79.53;101173.69;6102383;19;20085;-69
2023/04/11 03:34:52;;;;;;;12.18;3.20;;;;;;;7.43;80.04;101184.31;6099574;19;20012;-69
2023/04/11 03:36:57;;;;;;;17.23;2.63;;;;;;;7.44;79.67;101186.00;6102723;19;20003;-69
2023/04/11 03:39:05;;;;;;;9.38;2.38;;;;;;;7.33;79.73;101188.00;6102470;19;20440;-67
2023/04/11 03:41:10;;;;;;;12.40;2.35;;;;;;;7.37;78.97;101188.78;6103727;19;20027;-68
2023/04/11 03:43:15;;;;;;;9.30;2.13;;;;;;;7.33;79.57;101185.38;6103732;19;20480;-68
2023/04/11 03:45:24;;;;;;;8.55;2.30;;;;;;;7.30;78.97;101195.06;6104659;19;20014;-68
2023/04/11 03:47:29;;;;;;;17.60;3.15;;;;;;;7.28;78.75;101187.25;6103354;19;20006;-69
2023/04/11 03:49:34;;;;;;;9.25;3.38;;;;;;;7.20;78.70;101203.06;6103729;19;20023;-67
2023/04/11 03:51:39;;;;;;;9.75;2.63;;;;;;;7.27;78.06;101198.59;6102430;19;20014;-67
2023/04/11 03:53:44;;;;;;;12.82;2.88;;;;;;;7.24;77.92;101199.53;6098973;19;20094;-67
2023/04/11 03:55:52;;;;;;;14.13;2.53;;;;;;;7.21;77.54;101203.94;6099609;19;20010;-67
2023/04/11 03:57:57;;;;;;;10.73;2.30;;;;;;;7.19;77.92;101197.91;6102798;19;20011;-68
2023/04/11 04:00:05;;;;;;;10.18;2.83;;;;;;;7.24;77.50;101209.97;6101127;19;20038;-68
2023/04/11 04:02:12;;;;;;;8.30;2.80;;;;;;;7.14;78.43;101208.44;6099758;19;20010;-69
2023/04/11 04:04:18;;;;;;;13.35;2.25;;;;;;;7.09;78.44;101215.50;6093399;19;20034;-69
2023/04/11 04:06:25;;;;;;;10.02;2.55;;;;;;;7.02;78.65;101217.38;6099240;19;20490;-69
2023/04/11 04:08:30;;;;;;;12.93;2.70;;;;;;;7.01;78.29;101228.72;6102317;19;20010;-68
2023/04/11 04:10:35;;;;;;;10.35;2.22;;;;;;;6.98;78.16;101231.41;6102095;19;20015;-69
2023/04/11 04:12:43;;;;;;;12.65;2.47;;;;;;;7.06;77.17;101231.25;6103479;19;20031;-69
2023/04/11 04:14:51;;;;;;;7.55;2.45;;;;;;;7.03;77.18;101228.72;6102661;19;20007;-68
2023/04/11 04:16:56;;;;;;;10.77;2.92;;;;;;;6.95;77.53;101226.25;6101268;19;20625;-68
2023/04/11 04:19:01;;;;;;;10.85;2.17;;;;;;;6.94;78.12;101226.25;6100368;19;20432;-69
2023/04/11 04:21:07;;;;;;;11.63;2.42;;;;;;;6.98;77.66;101227.94;6101324;19;20705;-69
2023/04/11 04:23:13;;;;;;;15.40;3.17;;;;;;;6.96;78.45;101234.94;6100852;19;20410;-67
2023/04/11 04:25:18;;;;;;;6.93;2.15;;;;;;;6.96;78.37;101238.41;6097606;19;20014;-67
2023/04/11 04:27:26;;;;;;;14.48;2.47;;;;;;;6.98;78.64;101230.56;6094590;19;21266;-68
2023/04/11 04:29:37;;;;;;;15.95;2.28;;;;;;;6.95;79.00;101234.09;6098976;19;20038;-68
2023/04/11 04:31:43;;;;;;;8.25;2.45;;;;;;;6.94;78.96;101234.94;6102351;19;20025;-68
2023/04/11 04:33:48;;;;;;;7.47;2.20;;;;;;;6.96;78.74;101241.03;6101573;19;20028;-68
2023/04/11 04:35:56;;;;;;;14.57;2.45;;;;;;;6.96;79.53;101237.56;6099030;19;20014;-69
2023/04/11 04:38:04;;;;;;;11.45;2.97;;;;;;;6.92;79.47;101239.34;6100152;19;20017;-69
2023/04/11 04:40:12;;;;;;;11.63;2.55;;;;;;;6.92;79.81;101247.19;6102071;19;20024;-67
2023/04/11 04:42:17;;;;;;;9.32;1.80;;;;;;;7.01;79.21;101247.00;6099526;19;20495;-67
2023/04/11 04:44:25;;;;;;;8.98;3.08;;;;;;;6.97;79.18;101245.34;6100082;19;20014;-67
2023/04/11 04:46:35;;;;;;;14.30;2.65;;;;;;;6.95;79.58;101252.38;6099612;19;20129;-67
2023/04/11 04:48:40;;;;;;;12.02;2.78;;;;;;;6.90;79.44;101256.81;6100596;19;20027;-69
2023/04/11 04:50:46;;;;;;;12.23;2.55;;;;;;;6.95;80.04;101261.94;6097653;19;20011;-69
2023/04/11 04:52:51;;;;;;;15.77;3.45;;;;;;;6.91;80.30;101263.75;6099543;19;20563;-70
2023/04/11 04:54:57;;;;;;;8.30;2.58;;;;;;;7.00;80.57;101268.81;6100308;19;20018;-68
2023/04/11 04:57:02;;;;;;;6.70;1.98;;;;;;;7.05;80.69;101263.50;6100360;19;20007;-68
2023/04/11 04:59:07;;;;;;;12.90;3.63;;;;;;;7.14;80.67;101257.25;6099410;19;20010;-69
2023/04/11 05:01:12;;;;;;;9.60;2.53;;;;;;;7.16;80.93;101268.50;6098300;19;20011;-68
2023/04/11 05:03:22;;;;;;;10.38;3.58;;;;;;;7.24;80.58;101271.81;6098745;19;20010;-69
2023/04/11 05:05:28;;;;;;;20.35;3.47;;;;;;;7.30;80.42;101265.66;6097861;19;20117;-69
2023/04/11 05:07:33;;;;;;;15.52;2.78;;;;;;;7.33;80.95;101274.28;6098902;19;20011;-68
2023/04/11 05:09:38;;;;;;;11.20;3.53;;;;;;;7.39;80.88;101273.28;6099868;19;20078;-68
2023/04/11 05:11:44;;;;;;;12.40;3.40;;;;;;;7.44;81.07;101272.28;6101833;19;20405;-68
2023/04/11 05:13:52;;;;;;;16.80;2.92;;;;;;;7.41;81.23;101279.34;6101569;19;20467;-68
2023/04/11 05:15:57;;;;;;;26.92;4.78;;;;;;;7.48;81.13;101294.88;6103984;19;20009;-68
2023/04/11 05:18:02;;;;;;;20.42;3.35;;;;;;;7.53;81.09;101288.69;6088549;19;20036;-67
2023/04/11 05:20:12;;;;;;;14.32;3.88;;;;;;;7.56;81.65;101283.41;6108884;19;20018;-68
2023/04/11 05:22:17;;;;;;;18.10;3.08;;;;;;;7.61;80.91;101281.53;6104662;19;20039;-68
2023/04/11 05:24:22;;;;;;;23.67;4.22;;;;;;;7.59;81.41;101285.97;6106105;19;20015;-67
2023/04/11 05:26:32;;;;;;;22.60;4.07;;;;;;;7.62;81.02;101301.59;6107735;19;23029;-68
2023/04/11 05:28:37;;;;;;;11.80;3.22;;;;;;;7.65;80.73;101302.38;6109852;19;20048;-68
2023/04/11 05:30:45;;;;;;;19.67;3.88;;;;;;;7.64;80.94;101297.19;6105968;19;20030;-68
2023/04/11 05:32:53;;;;;;;16.85;3.33;;;;;;;7.61;80.94;101307.69;6106023;19;20038;-69
2023/04/11 05:34:59;;;;;;;18.48;3.17;;;;;;;7.66;80.70;101303.22;6104018;19;20010;-69
2023/04/11 05:37:07;;;;;;;15.35;3.10;;;;;;;7.69;80.56;101301.44;6108568;19;20002;-69
2023/04/11 05:39:12;;;;;;;23.27;4.10;;;;;;;7.71;80.63;101311.84;6107326;19;20003;-69
2023/04/11 05:41:19;;;;;;;13.80;3.03;;;;;;;7.66;80.56;101318.91;6109852;19;20113;-69
2023/04/11 05:43:24;;;;;;;14.02;4.15;;;;;;;7.68;80.81;101314.53;6110000;19;20062;-69
2023/04/11 05:45:29;;;;;;;15.02;3.47;;;;;;;7.72;80.58;101321.44;6109133;19;20024;-68
2023/04/11 05:47:34;;;;;;;11.77;3.80;;;;;;;7.83;80.44;101322.06;6107880;19;20039;-71
2023/04/11 05:49:40;;;;;;;19.83;3.45;;;;;;;7.87;80.09;101323.72;6105379;19;20014;-69
2023/04/11 05:51:45;;;;;;;17.35;3.35;;;;;;;7.97;79.91;101326.97;6105130;19;20031;-69
2023/04/11 05:53:52;;;;;;;19.95;4.32;;;;;;;8.04;79.22;101332.97;6105157;19;20439;-69
2023/04/11 05:55:58;;;;;;;12.35;3.17;;;;;;;7.95;78.59;101336.63;6105433;19;20042;-69
2023/04/11 05:58:03;;;;;;;16.05;3.15;;;;;;;7.89;78.90;101331.53;6105891;19;20353;-69
2023/04/11 06:00:11;;;;;;;13.70;3.42;;;;;;;7.84;78.25;101352.53;6106195;19;20018;-69
2023/04/11 06:02:17;;;;;;;17.55;4.93;;;;;;;8.08;77.17;101334.59;6100421;19;20018;-70
2023/04/11 06:04:25;;;;;;;14.98;3.20;;;;;;;8.24;77.04;101338.63;6105147;19;20060;-69
2023/04/11 06:06:30;;;;;;;13.80;3.00;;;;;;;8.20;76.57;101339.56;6105513;19;20019;-67
2023/04/11 06:08:35;;;;;;;14.55;2.88;;;;;;;8.20;76.60;101349.19;6104460;19;20038;-70
2023/04/11 06:10:43;;;;;;;16.60;3.42;;;;;;;8.21;76.00;101341.28;6100718;19;20006;-68
2023/04/11 06:12:48;;;;;;;11.65;3.38;;;;;;;8.38;74.84;101338.28;6101975;19;20015;-68
2023/04/11 06:14:53;;;;;;;13.40;3.15;;;;;;;8.54;74.86;101344.91;6104609;19;20014;-69
2023/04/11 06:16:59;;;;;;;13.32;3.42;;;;;;;8.71;74.53;101352.34;6106295;19;20374;-68
2023/04/11 06:19:05;;;;;;;16.98;3.60;;;;;;;8.77;73.73;101357.47;6107241;19;20554;-68
2023/04/11 06:21:10;;;;;;;13.85;3.47;;;;;;;8.93;73.52;101352.69;6106545;19;20010;-67
2023/04/11 06:23:15;;;;;;;19.98;4.43;;;;;;;9.06;73.68;101348.00;6105104;19;20385;-69
2023/04/11 06:25:23;;;;;;;15.57;3.63;;;;;;;9.24;72.79;101349.25;6104415;19;20006;-69
2023/04/11 06:27:31;;;;;;;10.98;3.35;;;;;;;9.27;71.93;101350.94;6099878;19;20010;-68
2023/04/11 06:29:36;;;;;;;8.88;2.67;;;;;;;9.06;72.68;101348.00;6102206;19;20450;-68
2023/04/11 06:31:41;;;;;;;21.90;3.80;;;;;;;9.26;72.85;101354.47;6104598;19;20083;-68
2023/04/11 06:33:48;;;;;;;14.00;3.47;;;;;;;8.92;73.50;101363.22;6103417;19;20223;-68
2023/04/11 06:35:53;;;;;;;25.60;3.90;;;;;;;8.61;72.97;101356.13;6102878;19;20074;-68
2023/04/11 06:37:58;;;;;;;14.63;3.20;;;;;;;8.49;73.81;101352.03;6098277;19;20002;-68
2023/04/11 06:40:04;;;;;;;13.10;4.63;;;;;;;8.63;74.30;101363.91;6102904;19;20006;-68
2023/04/11 06:42:12;;;;;;;10.95;3.70;;;;;;;9.12;73.12;101363.56;6099979;19;20003;-68
2023/04/11 06:44:22;;;;;;;20.95;3.60;;;;;;;8.83;72.83;101364.31;6100792;19;20010;-69
2023/04/11 06:46:29;;;;;;;13.82;4.70;;;;;;;8.90;72.61;101362.38;6094847;19;20011;-69
2023/04/11 06:48:34;;;;;;;12.98;4.88;;;;;;;9.21;72.50;101367.69;6102731;19;20034;-67
2023/04/11 06:50:40;;;;;;;17.90;4.10;;;;;;;9.18;72.63;101366.00;6099639;19;20007;-67
2023/04/11 06:52:45;;;;;;;17.02;5.00;;;;;;;9.22;72.02;101380.78;6096925;19;20405;-68
2023/04/11 06:54:51;;;;;;;16.90;2.95;;;;;;;9.10;72.35;101375.84;6100646;19;20007;-70
2023/04/11 06:56:57;;;;;;;15.90;3.38;;;;;;;8.96;71.48;101386.69;6100492;19;20441;-67
2023/04/11 06:59:02;;;;;;;13.50;3.58;;;;;;;9.54;69.55;101391.31;6107639;19;20082;-67
2023/04/11 07:01:10;;;;;;;15.57;3.05;;;;;;;9.63;70.30;101391.03;6103992;19;20007;-69
2023/04/11 07:03:15;;;;;;;17.65;4.78;;;;;;;9.64;69.21;101392.78;6090787;19;20003;-69
2023/04/11 07:05:23;;;;;;;16.70;3.60;;;;;;;9.82;67.97;101389.66;6095335;19;20228;-68
2023/04/11 07:07:28;;;;;;;16.05;2.72;;;;;;;9.91;68.34;101401.63;6094383;19;20018;-68
2023/04/11 07:09:33;;;;;;;18.05;3.05;;;;;;;9.30;67.01;101398.94;6096166;19;20141;-68
2023/04/11 07:11:43;;;;;;;22.92;4.28;;;;;;;9.03;68.70;101411.00;6102302;19;20031;-68
2023/04/11 07:13:48;;;;;;;13.30;3.35;;;;;;;9.55;67.87;101414.88;6101304;19;20011;-68
2023/04/11 07:15:53;;;;;;;20.00;4.68;;;;;;;9.88;67.91;101401.72;6102722;19;20023;-68
2023/04/11 07:18:01;;;;;;;18.27;4.32;;;;;;;9.59;67.27;101410.41;6099976;19;20473;-67
2023/04/11 07:20:10;;;;;;;8.85;2.83;;;;;;;9.86;66.36;101407.00;6101814;19;20007;-68
2023/04/11 07:22:15;;;;;;;11.40;2.53;;;;;;;9.89;66.14;101420.03;6097915;19;20010;-68
2023/04/11 07:24:23;;;;;;;12.55;3.00;;;;;;;9.48;66.09;101423.84;6100897;19;20018;-70
2023/04/11 07:26:31;;;;;;;15.38;4.25;;;;;;;9.54;67.14;101417.56;6099554;19;20020;-68
2023/04/11 07:28:37;;;;;;;16.02;3.05;;;;;;;10.17;66.28;101418.41;6103486;19;20475;-68
2023/04/11 07:30:42;;;;;;;14.60;2.92;;;;;;;10.36;66.07;101422.22;6100289;19;20012;-68
2023/04/11 07:32:47;;;;;;;13.02;3.65;;;;;;;9.91;65.72;101419.16;6104952;19;20011;-68
2023/04/11 07:34:55;;;;;;;9.93;2.80;;;;;;;10.02;65.57;101420.56;6102272;19;20056;-69
2023/04/11 07:37:01;;;;;;;14.60;3.63;;;;;;;9.39;66.83;101426.69;6103753;19;20028;-67
2023/04/11 07:39:08;;;;;;;12.52;2.90;;;;;;;9.34;67.47;101434.66;6104221;19;20098;-69
2023/04/11 07:41:13;;;;;;;15.95;3.10;;;;;;;9.29;68.50;101448.78;6104828;19;20094;-69
2023/04/11 07:43:18;;;;;;;16.00;3.50;;;;;;;10.16;65.82;101433.28;6101149;19;20007;-67
2023/04/11 07:45:22;;;;;;;14.65;3.30;;;;;;;10.16;66.06;101429.81;6105081;19;20096;-68
2023/04/11 07:47:27;;;;;;;14.35;3.60;;;;;;;10.33;65.65;101424.94;6103638;19;20014;-67
2023/04/11 07:49:33;;;;;;;13.90;3.80;;;;;;;10.74;65.28;101435.94;6104534;19;20013;-67
2023/04/11 07:51:41;;;;;;;24.52;3.65;;;;;;;10.04;66.18;101431.88;6095384;19;20030;-69
2023/04/11 07:53:49;;;;;;;16.27;4.20;;;;;;;10.67;64.79;101434.44;6098254;19;20082;-68
2023/04/11 07:55:54;;;;;;;17.23;3.63;;;;;;;11.15;63.47;101434.59;6095937;19;20013;-68
2023/04/11 07:57:59;;;;;;;17.08;3.05;;;;;;;10.69;63.49;101437.84;6096463;19;20019;-68
2023/04/11 08:00:05;;;;;;;9.95;2.85;;;;;;;10.36;63.91;101453.75;6098946;19;20399;-68
2023/04/11 08:02:12;;;;;;;16.98;5.05;;;;;;;9.93;65.08;101454.97;6095809;19;20030;-68
2023/04/11 08:04:24;;;;;;;11.50;3.42;;;;;;;9.73;65.25;101454.66;6083470;19;20003;-69
2023/04/11 08:06:33;;;;;;;12.50;3.47;;;;;;;9.65;65.68;101455.72;6094394;19;20471;-68
2023/04/11 08:08:40;;;;;;;20.13;3.97;;;;;;;9.64;66.12;101461.88;6096526;19;20515;-68
2023/04/11 08:10:46;;;;;;;16.58;3.83;;;;;;;10.22;64.74;101455.91;6095951;19;20015;-68
2023/04/11 08:12:52;;;;;;;14.77;2.85;;;;;;;10.50;63.75;101467.31;6097453;19;20181;-67
2023/04/11 08:14:57;;;;;;;11.57;2.53;;;;;;;10.32;62.14;101470.50;6098455;19;20003;-68
2023/04/11 08:17:02;;;;;;;10.10;2.70;;;;;;;10.22;63.52;101475.16;6100080;19;20114;-68
2023/04/11 08:19:12;;;;;;;15.30;3.17;;;;;;;10.24;62.99;101475.97;6094296;19;20007;-68
2023/04/11 08:21:18;;;;;;;17.05;3.25;;;;;;;10.00;64.24;101493.25;6095927;19;21875;-68
2023/04/11 08:23:23;;;;;;;15.15;2.53;;;;;;;10.57;61.26;101480.31;6094031;19;20010;-69
2023/04/11 08:25:31;;;;;;;12.23;3.00;;;;;;;10.19;62.53;101474.34;6104016;19;20010;-68
2023/04/11 08:27:36;;;;;;;9.38;3.13;;;;;;;10.43;61.33;101475.47;6102923;19;20010;-68
2023/04/11 08:29:41;;;;;;;12.88;2.80;;;;;;;10.37;62.45;101492.25;6103520;19;20491;-69
2023/04/11 08:31:47;;;;;;;19.77;3.03;;;;;;;10.87;61.16;101487.22;6104134;19;20006;-69
2023/04/11 08:33:52;;;;;;;14.35;3.38;;;;;;;11.57;60.82;101499.00;6103561;19;20027;-70
2023/04/11 08:35:57;;;;;;;8.20;2.28;;;;;;;11.03;59.25;101492.00;6103373;19;20607;-69
2023/04/11 08:38:03;;;;;;;12.00;3.03;;;;;;;10.70;59.09;101506.16;6103768;19;20006;-69
2023/04/11 08:40:10;;;;;;;11.25;2.25;;;;;;;10.97;59.20;101498.31;6105498;19;20017;-68
2023/04/11 08:42:30;;;;;;;11.38;2.50;;;;;;;10.67;58.13;101513.28;6099921;19;20010;-68
2023/04/11 08:44:36;;;;;;;15.27;3.35;;;;;;;10.91;56.70;101501.16;6101789;19;20010;-68
2023/04/11 08:46:46;;;;;;;11.90;2.35;;;;;;;11.31;56.78;101505.97;6100820;19;20017;-69
2023/04/11 08:48:52;;;;;;;9.57;1.92;;;;;;;11.18;55.69;101499.41;6101546;19;20312;-69
2023/04/11 08:50:59;;;;;;;12.07;2.20;;;;;;;11.37;56.40;101502.28;6100618;19;20067;-69
2023/04/11 08:53:07;;;;;;;6.38;2.30;;;;;;;11.82;55.39;101494.63;6093253;19;20081;-69
2023/04/11 08:55:16;;;;;;;10.50;2.50;;;;;;;12.18;55.01;101504.75;6086489;19;20030;-68
2023/04/11 08:57:30;;;;;;;13.43;2.92;;;;;;;11.63;54.58;101499.63;6098719;19;20065;-70
2023/04/11 08:59:35;;;;;;;9.30;2.03;;;;;;;12.15;54.75;101510.16;6096014;19;20024;-69
2023/04/11 09:01:42;;;;;;;11.85;2.20;;;;;;;12.44;52.64;101510.84;6094631;19;20345;-69
2023/04/11 09:03:53;;;;;;;8.60;2.42;;;;;;;12.14;51.79;101505.81;6091142;19;20014;-68
2023/04/11 09:06:10;;;;;;;4.50;2.40;;;;;;;11.66;52.58;101490.78;6093299;19;20013;-68
2023/04/11 09:08:19;;;;;;;9.63;2.30;;;;;;;12.17;52.06;101510.97;6096753;19;20002;-68
2023/04/11 09:10:26;;;;;;;5.78;1.88;;;;;;;11.98;51.62;101517.78;6098603;19;20010;-70
2023/04/11 09:12:34;;;;;;;9.55;2.65;;;;;;;11.83;51.95;101514.75;6097545;19;20010;-69
2023/04/11 09:14:50;;;;;;;10.40;2.25;;;;;;;11.67;52.65;101521.47;6074185;19;20016;-72
2023/04/11 09:16:59;;;;;;;8.80;2.53;;;;;;;11.57;51.70;101506.91;6095893;19;20363;-70
2023/04/11 09:19:04;;;;;;;5.75;1.92;;;;;;;11.75;51.85;101506.25;6095272;19;20018;-70
2023/04/11 09:21:10;;;;;;;6.50;1.98;;;;;;;12.48;50.81;101515.06;6098099;19;20027;-68
2023/04/11 09:23:23;;;;;;;9.63;2.05;;;;;;;12.15;50.72;101512.78;6093914;19;20010;-69
2023/04/11 09:25:30;;;;;;;8.02;2.17;;;;;;;12.36;51.16;101523.47;6098466;19;20006;-69
2023/04/11 09:27:38;;;;;;;9.73;2.20;;;;;;;11.70;51.40;101524.00;6095538;19;20017;-68
2023/04/11 09:29:45;;;;;;;12.57;1.98;;;;;;;11.24;51.14;101514.97;6099458;19;20011;-68
2023/04/11 09:31:52;;;;;;;10.07;2.47;;;;;;;12.15;52.39;101519.84;6100216;19;20038;-69
2023/04/11 09:33:57;;;;;;;6.82;1.88;;;;;;;12.66;51.99;101521.44;6099635;19;20015;-69
2023/04/11 09:36:04;;;;;;;9.70;2.00;;;;;;;12.43;51.30;101520.53;6100894;19;20006;-69
2023/04/11 09:38:08;;;;;;;11.30;2.45;;;;;;;12.29;50.67;101513.13;6094176;19;20035;-69
2023/04/11 09:40:15;;;;;;;9.55;2.35;;;;;;;11.99;51.43;101522.16;6092739;19;20027;-68
2023/04/11 09:42:26;;;;;;;12.20;2.40;;;;;;;12.39;51.74;101518.06;6096152;19;20479;-68
2023/04/11 09:44:40;;;;;;;14.05;3.05;;;;;;;12.56;52.02;101520.94;6093509;19;20357;-69
2023/04/11 09:46:58;;;;;;;5.82;2.15;;;;;;;12.91;50.48;101529.28;6089569;19;20022;-70
2023/04/11 09:49:03;;;;;;;10.20;2.50;;;;;;;12.32;50.45;101522.69;6091429;19;20050;-70